Charco, Texas
Current Conditions -  °F | °C
As of 2:35 PM on Friday 21 Nov 2014 (Local Time) from KBEA Reporting Station
Broken Clouds Broken Clouds  
Wind Chill: 25°   Ceiling: 4400
Heat Index: 27°   Visibility: 10mi
Dew Point: 19°   Wind: 21mph
Humidity: 68%   Direction: 150°SSE
Pressure: 29.99"   Gusts: 29mph
Location:  28.6563°N, 97.4287°W
Report Text: KBEA 212035Z AUTO 15018G25KT 10SM SCT028 SCT033 BKN044 26/19 A2999 RMK AO2 T02550191
Loading
Personal Weather Stations






























Interactive Weather Map New forecast layout! Learn more

10-Day Weather Forecast

Advertisements
Track Severe Weather on mobile